sensor_id;sensor_type;location;lat;lon;timestamp;pressure;altitude;pressure_sealevel;temperature;humidity
1736;BME280;865;53.672;10.250;2023-07-20T00:02:12;100653.19;;;12.65;100.00
1736;BME280;865;53.672;10.250;2023-07-20T00:04:39;100658.97;;;12.76;100.00
1736;BME280;865;53.672;10.250;2023-07-20T00:07:06;100658.06;;;12.77;100.00
1736;BME280;865;53.672;10.250;2023-07-20T00:09:32;100659.56;;;12.85;100.00
1736;BME280;865;53.672;10.250;2023-07-20T00:11:59;100649.91;;;12.87;100.00
1736;BME280;865;53.672;10.250;2023-07-20T00:14:26;100649.97;;;12.85;100.00
1736;BME280;865;53.672;10.250;2023-07-20T00:16:55;100645.50;;;12.89;100.00
1736;BME280;865;53.672;10.250;2023-07-20T00:19:23;100646.16;;;12.95;100.00
1736;BME280;865;53.672;10.250;2023-07-20T00:21:50;100643.50;;;12.97;100.00
1736;BME280;865;53.672;10.250;2023-07-20T00:24:16;100638.19;;;13.00;100.00
1736;BME280;865;53.672;10.250;2023-07-20T00:26:43;100638.22;;;12.98;100.00
1736;BME280;865;53.672;10.250;2023-07-20T00:29:10;100640.69;;;13.03;100.00
1736;BME280;865;53.672;10.250;2023-07-20T00:31:36;100639.59;;;13.10;100.00
1736;BME280;865;53.672;10.250;2023-07-20T00:34:04;100641.34;;;13.10;100.00
1736;BME280;865;53.672;10.250;2023-07-20T00:36:30;100645.94;;;13.03;100.00
1736;BME280;865;53.672;10.250;2023-07-20T00:38:57;100644.97;;;13.06;100.00
1736;BME280;865;53.672;10.250;2023-07-20T00:41:23;100640.50;;;13.09;100.00
1736;BME280;865;53.672;10.250;2023-07-20T00:43:50;100636.66;;;13.19;100.00
1736;BME280;865;53.672;10.250;2023-07-20T00:46:17;100632.94;;;13.28;100.00
1736;BME280;865;53.672;10.250;2023-07-20T00:48:43;100633.91;;;13.24;100.00
1736;BME280;865;53.672;10.250;2023-07-20T00:51:10;100634.69;;;13.28;100.00
1736;BME280;865;53.672;10.250;2023-07-20T00:53:37;100630.22;;;13.31;100.00
1736;BME280;865;53.672;10.250;2023-07-20T00:56:03;100632.09;;;13.28;100.00
1736;BME280;865;53.672;10.250;2023-07-20T00:58:31;100634.78;;;13.25;100.00
1736;BME280;865;53.672;10.250;2023-07-20T01:00:57;100644.34;;;13.27;100.00
1736;BME280;865;53.672;10.250;2023-07-20T01:03:24;100641.88;;;13.21;100.00
1736;BME280;865;53.672;10.250;2023-07-20T01:06:03;100640.91;;;13.25;100.00
1736;BME280;865;53.672;10.250;2023-07-20T01:08:43;100643.47;;;13.27;100.00
1736;BME280;865;53.672;10.250;2023-07-20T01:11:16;100639.28;;;13.19;100.00
1736;BME280;865;53.672;10.250;2023-07-20T01:13:48;100642.06;;;13.15;100.00
1736;BME280;865;53.672;10.250;2023-07-20T01:16:15;100641.25;;;13.13;100.00
1736;BME280;865;53.672;10.250;2023-07-20T01:18:42;100644.72;;;13.13;100.00
1736;BME280;865;53.672;10.250;2023-07-20T01:21:13;100641.34;;;13.10;100.00
1736;BME280;865;53.672;10.250;2023-07-20T01:23:58;100644.72;;;13.13;100.00
1736;BME280;865;53.672;10.250;2023-07-20T01:31:57;100641.09;;;13.17;100.00
1736;BME280;865;53.672;10.250;2023-07-20T01:34:24;100649.97;;;13.13;100.00
1736;BME280;865;53.672;10.250;2023-07-20T01:36:52;100643.31;;;13.03;100.00
1736;BME280;865;53.672;10.250;2023-07-20T01:39:20;100638.88;;;13.05;100.00
1736;BME280;865;53.672;10.250;2023-07-20T01:41:47;100639.78;;;13.04;100.00
1736;BME280;865;53.672;10.250;2023-07-20T01:44:14;100642.28;;;13.09;100.00
1736;BME280;865;53.672;10.250;2023-07-20T01:46:40;100638.00;;;13.06;100.00
1736;BME280;865;53.672;10.250;2023-07-20T01:49:07;100635.09;;;13.14;100.00
1736;BME280;865;53.672;10.250;2023-07-20T01:51:34;100630.88;;;13.10;100.00
1736;BME280;865;53.672;10.250;2023-07-20T01:54:00;100632.44;;;13.15;100.00
1736;BME280;865;53.672;10.250;2023-07-20T01:56:27;100627.03;;;13.20;100.00
1736;BME280;865;53.672;10.250;2023-07-20T01:58:53;100631.44;;;13.19;100.00
1736;BME280;865;53.672;10.250;2023-07-20T02:01:20;100626.03;;;13.26;100.00
1736;BME280;865;53.672;10.250;2023-07-20T02:03:47;100620.22;;;13.16;100.00
1736;BME280;865;53.672;10.250;2023-07-20T02:06:13;100631.53;;;13.16;100.00
1736;BME280;865;53.672;10.250;2023-07-20T02:08:40;100633.34;;;13.14;100.00
1736;BME280;865;53.672;10.250;2023-07-20T02:11:06;100628.16;;;13.13;100.00
1736;BME280;865;53.672;10.250;2023-07-20T02:13:33;100625.53;;;13.13;100.00
1736;BME280;865;53.672;10.250;2023-07-20T02:15:59;100628.09;;;13.14;100.00
1736;BME280;865;53.672;10.250;2023-07-20T02:18:26;100620.25;;;13.14;100.00
1736;BME280;865;53.672;10.250;2023-07-20T02:20:53;100622.81;;;13.16;100.00
1736;BME280;865;53.672;10.250;2023-07-20T02:23:20;100622.97;;;13.11;100.00
1736;BME280;865;53.672;10.250;2023-07-20T02:25:46;100625.56;;;13.11;100.00
1736;BME280;865;53.672;10.250;2023-07-20T02:28:13;100623.69;;;13.16;100.00
1736;BME280;865;53.672;10.250;2023-07-20T02:30:40;100622.75;;;13.17;100.00
1736;BME280;865;53.672;10.250;2023-07-20T02:33:07;100621.06;;;13.16;100.00
1736;BME280;865;53.672;10.250;2023-07-20T02:35:34;100624.69;;;13.12;100.00
1736;BME280;865;53.672;10.250;2023-07-20T02:38:00;100629.88;;;13.14;100.00
1736;BME280;865;53.672;10.250;2023-07-20T02:40:26;100631.59;;;13.15;100.00
1736;BME280;865;53.672;10.250;2023-07-20T02:42:54;100628.41;;;13.05;100.00
1736;BME280;865;53.672;10.250;2023-07-20T02:45:20;100632.44;;;13.15;100.00
1736;BME280;865;53.672;10.250;2023-07-20T02:47:47;100637.53;;;13.20;100.00
1736;BME280;865;53.672;10.250;2023-07-20T02:50:13;100640.41;;;13.12;100.00
1736;BME280;865;53.672;10.250;2023-07-20T02:52:40;100649.97;;;13.13;100.00
1736;BME280;865;53.672;10.250;2023-07-20T02:55:07;100647.41;;;13.12;100.00
1736;BME280;865;53.672;10.250;2023-07-20T02:57:34;100648.47;;;13.06;100.00
1736;BME280;865;53.672;10.250;2023-07-20T03:00:02;100643.03;;;13.12;100.00
1736;BME280;865;53.672;10.250;2023-07-20T03:02:30;100643.72;;;13.17;100.00
1736;BME280;865;53.672;10.250;2023-07-20T03:04:56;100647.25;;;13.16;100.00
1736;BME280;865;53.672;10.250;2023-07-20T03:07:27;100647.25;;;13.16;100.00
1736;BME280;865;53.672;10.250;2023-07-20T03:09:54;100644.72;;;13.13;100.00
1736;BME280;865;53.672;10.250;2023-07-20T03:12:21;100645.53;;;13.15;100.00
1736;BME280;865;53.672;10.250;2023-07-20T03:14:48;100639.28;;;13.19;100.00
1736;BME280;865;53.672;10.250;2023-07-20T03:17:15;100638.44;;;13.19;100.00
1736;BME280;865;53.672;10.250;2023-07-20T03:19:41;100640.16;;;13.20;100.00
1736;BME280;865;53.672;10.250;2023-07-20T03:22:08;100640.03;;;13.23;100.00
1736;BME280;865;53.672;10.250;2023-07-20T03:24:35;100640.03;;;13.23;100.00
1736;BME280;865;53.672;10.250;2023-07-20T03:27:02;100647.06;;;13.22;100.00
1736;BME280;865;53.672;10.250;2023-07-20T03:29:28;100646.31;;;13.19;100.00
1736;BME280;865;53.672;10.250;2023-07-20T03:31:55;100652.50;;;13.16;100.00
1736;BME280;865;53.672;10.250;2023-07-20T03:34:22;100649.84;;;13.18;100.00
1736;BME280;865;53.672;10.250;2023-07-20T03:36:48;100649.75;;;13.21;100.00
1736;BME280;865;53.672;10.250;2023-07-20T03:39:15;100653.22;;;13.21;100.00
1736;BME280;865;53.672;10.250;2023-07-20T03:41:41;100652.28;;;13.22;100.00
1736;BME280;865;53.672;10.250;2023-07-20T03:44:09;100658.53;;;13.18;100.00
1736;BME280;865;53.672;10.250;2023-07-20T03:46:36;100654.16;;;13.19;100.00
1736;BME280;865;53.672;10.250;2023-07-20T03:49:02;100654.00;;;13.25;100.00
1736;BME280;865;53.672;10.250;2023-07-20T03:51:29;100649.56;;;13.27;100.00
1736;BME280;865;53.672;10.250;2023-07-20T03:53:56;100657.34;;;13.30;100.00
1736;BME280;865;53.672;10.250;2023-07-20T03:56:22;100657.38;;;13.29;100.00
1736;BME280;865;53.672;10.250;2023-07-20T03:58:49;100652.13;;;13.29;100.00
1736;BME280;865;53.672;10.250;2023-07-20T04:01:16;100656.38;;;13.33;100.00
1736;BME280;865;53.672;10.250;2023-07-20T04:03:45;100660.09;;;13.26;100.00
1736;BME280;865;53.672;10.250;2023-07-20T04:06:15;100664.44;;;13.27;100.00
1736;BME280;865;53.672;10.250;2023-07-20T04:08:44;100658.94;;;13.34;100.00
1736;BME280;865;53.672;10.250;2023-07-20T04:11:11;100659.84;;;13.33;100.00
1736;BME280;865;53.672;10.250;2023-07-20T04:13:37;100663.56;;;13.26;100.00
1736;BME280;865;53.672;10.250;2023-07-20T04:16:04;100662.38;;;13.36;100.00
1736;BME280;865;53.672;10.250;2023-07-20T04:18:30;100670.06;;;13.41;100.00
1736;BME280;865;53.672;10.250;2023-07-20T04:20:57;100673.72;;;13.35;100.00
1736;BME280;865;53.672;10.250;2023-07-20T04:23:23;100673.72;;;13.35;100.00
1736;BME280;865;53.672;10.250;2023-07-20T04:25:51;100671.44;;;13.53;100.00
1736;BME280;865;53.672;10.250;2023-07-20T04:28:18;100678.50;;;13.51;100.00
1736;BME280;865;53.672;10.250;2023-07-20T04:30:44;100681.22;;;13.48;100.00
1736;BME280;865;53.672;10.250;2023-07-20T04:33:11;100681.06;;;13.52;100.00
1736;BME280;865;53.672;10.250;2023-07-20T04:35:47;100678.44;;;13.52;100.00
1736;BME280;865;53.672;10.250;2023-07-20T04:38:14;100686.47;;;13.48;100.00
1736;BME280;865;53.672;10.250;2023-07-20T04:40:48;100689.88;;;13.50;100.00
1736;BME280;865;53.672;10.250;2023-07-20T04:43:16;100691.00;;;13.42;100.00
1736;BME280;865;53.672;10.250;2023-07-20T04:45:43;100692.16;;;13.32;100.00
1736;BME280;865;53.672;10.250;2023-07-20T04:48:11;100686.84;;;13.35;100.00
1736;BME280;865;53.672;10.250;2023-07-20T04:50:40;100691.03;;;13.41;100.00
1736;BME280;865;53.672;10.250;2023-07-20T04:53:08;100684.78;;;13.45;100.00
1736;BME280;865;53.672;10.250;2023-07-20T04:55:37;100678.28;;;13.57;100.00
1736;BME280;865;53.672;10.250;2023-07-20T04:58:04;100679.09;;;13.59;100.00
1736;BME280;865;53.672;10.250;2023-07-20T05:00:32;100688.50;;;13.64;100.00
1736;BME280;865;53.672;10.250;2023-07-20T05:02:59;100685.34;;;13.55;100.00
1736;BME280;865;53.672;10.250;2023-07-20T05:05:26;100682.75;;;13.53;100.00
1736;BME280;865;53.672;10.250;2023-07-20T05:07:52;100682.59;;;13.59;100.00
1736;BME280;865;53.672;10.250;2023-07-20T05:10:19;100686.50;;;13.73;100.00
1736;BME280;865;53.672;10.250;2023-07-20T05:12:45;100681.28;;;13.71;100.00
1736;BME280;865;53.672;10.250;2023-07-20T05:15:11;100684.09;;;13.66;100.00
1736;BME280;865;53.672;10.250;2023-07-20T05:17:38;100676.59;;;14.06;100.00
1736;BME280;865;53.672;10.250;2023-07-20T05:20:06;100680.22;;;14.27;100.00
1736;BME280;865;53.672;10.250;2023-07-20T05:22:32;100678.53;;;14.26;100.00
1736;BME280;865;53.672;10.250;2023-07-20T05:25:00;100680.09;;;14.06;100.00
1736;BME280;865;53.672;10.250;2023-07-20T05:27:26;100686.47;;;13.99;100.00
1736;BME280;865;53.672;10.250;2023-07-20T05:29:53;100688.53;;;14.14;100.00
1736;BME280;865;53.672;10.250;2023-07-20T05:32:19;100688.84;;;14.30;100.00
1736;BME280;865;53.672;10.250;2023-07-20T05:34:45;100687.28;;;14.50;100.00
1736;BME280;865;53.672;10.250;2023-07-20T05:37:12;100699.81;;;14.67;100.00
1736;BME280;865;53.672;10.250;2023-07-20T05:39:40;100692.19;;;14.61;100.00
1736;BME280;865;53.672;10.250;2023-07-20T05:42:07;100696.34;;;14.41;100.00
1736;BME280;865;53.672;10.250;2023-07-20T05:44:33;100701.69;;;14.63;100.00
1736;BME280;865;53.672;10.250;2023-07-20T05:47:00;100692.94;;;14.86;100.00
1736;BME280;865;53.672;10.250;2023-07-20T05:49:27;100701.53;;;15.13;100.00
1736;BME280;865;53.672;10.250;2023-07-20T05:51:56;100694.06;;;15.24;100.00
1736;BME280;865;53.672;10.250;2023-07-20T05:54:26;100696.28;;;15.35;100.00
1736;BME280;865;53.672;10.250;2023-07-20T05:56:53;100697.91;;;15.60;100.00
1736;BME280;865;53.672;10.250;2023-07-20T05:59:19;100697.22;;;15.55;100.00
1736;BME280;865;53.672;10.250;2023-07-20T06:01:46;100699.56;;;15.62;100.00
1736;BME280;865;53.672;10.250;2023-07-20T06:04:15;100695.28;;;15.60;100.00
1736;BME280;865;53.672;10.250;2023-07-20T06:06:41;100697.50;;;15.70;100.00
1736;BME280;865;53.672;10.250;2023-07-20T06:09:08;100704.63;;;15.67;100.00
1736;BME280;865;53.672;10.250;2023-07-20T06:11:38;100706.47;;;15.43;100.00
1736;BME280;865;53.672;10.250;2023-07-20T06:14:05;100704.09;;;15.59;100.00
1736;BME280;865;53.672;10.250;2023-07-20T06:16:32;100701.03;;;15.69;100.00
1736;BME280;865;53.672;10.250;2023-07-20T06:19:00;100707.78;;;15.77;100.00
1736;BME280;865;53.672;10.250;2023-07-20T06:21:26;100710.16;;;15.83;100.00
1736;BME280;865;53.672;10.250;2023-07-20T06:23:54;100709.03;;;15.88;100.00
1736;BME280;865;53.672;10.250;2023-07-20T06:26:20;100713.50;;;16.07;100.00
1736;BME280;865;53.672;10.250;2023-07-20T06:28:48;100712.09;;;15.78;100.00
1736;BME280;865;53.672;10.250;2023-07-20T06:31:14;100720.44;;;15.87;100.00
1736;BME280;865;53.672;10.250;2023-07-20T06:33:41;100727.94;;;15.76;100.00
1736;BME280;865;53.672;10.250;2023-07-20T06:36:07;100724.16;;;15.83;100.00
1736;BME280;865;53.672;10.250;2023-07-20T06:38:34;100722.56;;;16.00;100.00
1736;BME280;865;53.672;10.250;2023-07-20T06:41:00;100728.09;;;16.14;100.00
1736;BME280;865;53.672;10.250;2023-07-20T06:43:30;100722.97;;;16.11;100.00
1736;BME280;865;53.672;10.250;2023-07-20T06:45:59;100721.75;;;16.18;100.00
1736;BME280;865;53.672;10.250;2023-07-20T06:48:26;100732.81;;;15.85;100.00
1736;BME280;865;53.672;10.250;2023-07-20T06:50:52;100735.44;;;15.63;100.00
1736;BME280;865;53.672;10.250;2023-07-20T06:53:19;100736.50;;;15.59;100.00
1736;BME280;865;53.672;10.250;2023-07-20T06:55:46;100732.03;;;15.83;100.00
1736;BME280;865;53.672;10.250;2023-07-20T06:58:17;100734.16;;;15.95;100.00
1736;BME280;865;53.672;10.250;2023-07-20T07:00:45;100737.63;;;16.16;100.00
1736;BME280;865;53.672;10.250;2023-07-20T07:03:11;100736.69;;;15.97;100.00
1736;BME280;865;53.672;10.250;2023-07-20T07:05:38;100729.78;;;16.35;100.00
1736;BME280;865;53.672;10.250;2023-07-20T07:08:05;100730.00;;;16.51;100.00
1736;BME280;865;53.672;10.250;2023-07-20T07:10:32;100733.34;;;16.14;100.00
1736;BME280;865;53.672;10.250;2023-07-20T07:12:59;100736.81;;;15.94;100.00
1736;BME280;865;53.672;10.250;2023-07-20T07:15:26;100734.66;;;15.83;100.00
1736;BME280;865;53.672;10.250;2023-07-20T07:17:54;100733.22;;;16.37;100.00
1736;BME280;865;53.672;10.250;2023-07-20T07:20:21;100742.41;;;16.48;100.00
1736;BME280;865;53.672;10.250;2023-07-20T07:22:47;100748.00;;;16.21;100.00
1736;BME280;865;53.672;10.250;2023-07-20T07:25:17;100747.72;;;16.07;100.00
1736;BME280;865;53.672;10.250;2023-07-20T07:27:49;100750.19;;;15.89;100.00
1736;BME280;865;53.672;10.250;2023-07-20T07:30:15;100762.50;;;15.89;100.00
1736;BME280;865;53.672;10.250;2023-07-20T07:32:42;100759.69;;;16.14;100.00
1736;BME280;865;53.672;10.250;2023-07-20T07:35:08;100756.59;;;16.25;100.00
1736;BME280;865;53.672;10.250;2023-07-20T07:37:35;100756.66;;;16.23;100.00
1736;BME280;865;53.672;10.250;2023-07-20T07:40:12;100759.53;;;15.97;100.00
1736;BME280;865;53.672;10.250;2023-07-20T07:42:38;100742.28;;;16.51;100.00
1736;BME280;865;53.672;10.250;2023-07-20T07:45:06;100756.22;;;16.53;100.00
1736;BME280;865;53.672;10.250;2023-07-20T07:47:32;100755.19;;;16.57;100.00
1736;BME280;865;53.672;10.250;2023-07-20T07:49:59;100766.16;;;16.27;100.00
1736;BME280;865;53.672;10.250;2023-07-20T07:52:26;100771.13;;;15.92;100.00
1736;BME280;865;53.672;10.250;2023-07-20T07:54:52;100778.97;;;15.72;100.00
1736;BME280;865;53.672;10.250;2023-07-20T07:57:18;100785.91;;;15.51;100.00
1736;BME280;865;53.672;10.250;2023-07-20T07:59:45;100778.31;;;15.43;100.00
1736;BME280;865;53.672;10.250;2023-07-20T08:02:11;100771.13;;;15.25;100.00
1736;BME280;865;53.672;10.250;2023-07-20T08:04:38;100773.28;;;15.15;100.00
1736;BME280;865;53.672;10.250;2023-07-20T08:07:05;100767.75;;;14.99;100.00
1736;BME280;865;53.672;10.250;2023-07-20T08:09:32;100767.44;;;14.84;100.00
1736;BME280;865;53.672;10.250;2023-07-20T08:11:59;100766.44;;;14.88;100.00
1736;BME280;865;53.672;10.250;2023-07-20T08:14:26;100768.34;;;15.30;100.00
1736;BME280;865;53.672;10.250;2023-07-20T08:16:52;100766.28;;;15.82;100.00
1736;BME280;865;53.672;10.250;2023-07-20T08:19:19;100760.13;;;16.24;100.00
1736;BME280;865;53.672;10.250;2023-07-20T08:21:46;100765.06;;;16.52;100.00
1736;BME280;865;53.672;10.250;2023-07-20T08:24:12;100771.31;;;16.70;100.00
1736;BME280;865;53.672;10.250;2023-07-20T08:26:39;100772.63;;;16.80;100.00
1736;BME280;865;53.672;10.250;2023-07-20T08:29:06;100772.56;;;16.81;100.00
1736;BME280;865;53.672;10.250;2023-07-20T08:31:32;100774.69;;;16.92;100.00
1736;BME280;865;53.672;10.250;2023-07-20T08:33:59;100783.47;;;16.93;100.00
1736;BME280;865;53.672;10.250;2023-07-20T08:36:25;100773.38;;;16.63;100.00
1736;BME280;865;53.672;10.250;2023-07-20T08:38:52;100788.63;;;16.14;100.00
1736;BME280;865;53.672;10.250;2023-07-20T08:41:19;100783.50;;;16.31;100.00
1736;BME280;865;53.672;10.250;2023-07-20T08:43:47;100776.00;;;16.43;100.00
1736;BME280;865;53.672;10.250;2023-07-20T08:46:14;100781.06;;;16.27;100.00
1736;BME280;865;53.672;10.250;2023-07-20T08:48:57;100785.47;;;16.26;100.00
1736;BME280;865;53.672;10.250;2023-07-20T08:51:24;100784.09;;;16.58;100.00
1736;BME280;865;53.672;10.250;2023-07-20T08:53:52;100783.81;;;17.04;100.00
1736;BME280;865;53.672;10.250;2023-07-20T08:56:19;100786.91;;;17.14;100.00
1736;BME280;865;53.672;10.250;2023-07-20T08:58:48;100796.66;;;16.93;100.00
1736;BME280;865;53.672;10.250;2023-07-20T09:01:15;100804.69;;;17.27;100.00
1736;BME280;865;53.672;10.250;2023-07-20T09:03:43;100794.22;;;17.45;100.00
1736;BME280;865;53.672;10.250;2023-07-20T09:06:11;100792.03;;;17.72;100.00
1736;BME280;865;53.672;10.250;2023-07-20T09:08:38;100800.09;;;18.05;100.00
1736;BME280;865;53.672;10.250;2023-07-20T09:11:05;100794.50;;;18.11;100.00
1736;BME280;865;53.672;10.250;2023-07-20T09:13:33;100800.41;;;17.99;100.00
1736;BME280;865;53.672;10.250;2023-07-20T09:15:59;100811.44;;;17.90;100.00
1736;BME280;865;53.672;10.250;2023-07-20T09:18:32;100808.81;;;18.07;100.00
1736;BME280;865;53.672;10.250;2023-07-20T09:21:03;100813.59;;;17.99;100.00
1736;BME280;865;53.672;10.250;2023-07-20T09:23:34;100816.47;;;17.75;100.00
1736;BME280;865;53.672;10.250;2023-07-20T09:26:09;100810.53;;;18.26;100.00
1736;BME280;865;53.672;10.250;2023-07-20T09:28:49;100816.03;;;18.56;100.00
1736;BME280;865;53.672;10.250;2023-07-20T09:31:20;100819.28;;;18.61;100.00
1736;BME280;865;53.672;10.250;2023-07-20T09:33:48;100835.41;;;18.39;100.00
1736;BME280;865;53.672;10.250;2023-07-20T09:36:17;100835.16;;;17.35;100.00
1736;BME280;865;53.672;10.250;2023-07-20T09:39:04;100807.25;;;16.30;100.00
1736;BME280;865;53.672;10.250;2023-07-20T09:41:40;100807.19;;;15.67;100.00
1736;BME280;865;53.672;10.250;2023-07-20T09:44:14;100808.34;;;15.60;100.00
1736;BME280;865;53.672;10.250;2023-07-20T09:46:46;100801.03;;;15.90;100.00
1736;BME280;865;53.672;10.250;2023-07-20T09:49:17;100800.56;;;15.80;100.00
1736;BME280;865;53.672;10.250;2023-07-20T09:51:47;100796.47;;;16.15;100.00
1736;BME280;865;53.672;10.250;2023-07-20T09:54:13;100790.16;;;16.40;100.00
1736;BME280;865;53.672;10.250;2023-07-20T09:56:41;100796.19;;;16.62;100.00
1736;BME280;865;53.672;10.250;2023-07-20T09:59:08;100782.16;;;16.82;100.00
1736;BME280;865;53.672;10.250;2023-07-20T10:01:35;100790.34;;;16.76;100.00
1736;BME280;865;53.672;10.250;2023-07-20T10:04:07;100800.75;;;16.98;100.00
1736;BME280;865;53.672;10.250;2023-07-20T10:06:37;100807.63;;;17.02;100.00
1736;BME280;865;53.672;10.250;2023-07-20T10:09:07;100803.00;;;17.07;100.00
1736;BME280;865;53.672;10.250;2023-07-20T10:11:40;100792.09;;;17.53;100.00
1736;BME280;865;53.672;10.250;2023-07-20T10:14:12;100799.06;;;17.54;100.00
1736;BME280;865;53.672;10.250;2023-07-20T10:16:54;100809.28;;;17.98;100.00
1736;BME280;865;53.672;10.250;2023-07-20T10:19:34;100821.56;;;18.16;100.00
1736;BME280;865;53.672;10.250;2023-07-20T10:22:19;100808.81;;;18.42;100.00
1736;BME280;865;53.672;10.250;2023-07-20T10:24:50;100815.97;;;18.40;100.00
1736;BME280;865;53.672;10.250;2023-07-20T10:27:18;100818.91;;;18.16;100.00
1736;BME280;865;53.672;10.250;2023-07-20T10:29:44;100831.16;;;17.45;100.00
1736;BME280;865;53.672;10.250;2023-07-20T10:32:11;100827.19;;;16.35;100.00
1736;BME280;865;53.672;10.250;2023-07-20T10:34:38;100827.00;;;15.54;100.00
1736;BME280;865;53.672;10.250;2023-07-20T10:37:04;100815.59;;;15.31;100.00
1736;BME280;865;53.672;10.250;2023-07-20T10:39:32;100813.41;;;14.95;100.00
1736;BME280;865;53.672;10.250;2023-07-20T10:42:03;100807.31;;;15.18;100.00
1736;BME280;865;53.672;10.250;2023-07-20T10:44:30;100809.34;;;15.34;100.00
1736;BME280;865;53.672;10.250;2023-07-20T10:47:08;100797.09;;;15.56;100.00
1736;BME280;865;53.672;10.250;2023-07-20T10:50:00;100795.94;;;15.41;100.00
1736;BME280;865;53.672;10.250;2023-07-20T10:52:37;100796.66;;;15.67;100.00
1736;BME280;865;53.672;10.250;2023-07-20T10:55:23;100785.50;;;15.62;100.00
1736;BME280;865;53.672;10.250;2023-07-20T10:58:11;100783.75;;;15.61;100.00
1736;BME280;865;53.672;10.250;2023-07-20T11:00:57;100779.47;;;16.02;100.00
1736;BME280;865;53.672;10.250;2023-07-20T11:03:37;100789.81;;;16.48;100.00
1736;BME280;865;53.672;10.250;2023-07-20T11:11:29;100777.91;;;17.56;100.00
1736;BME280;865;53.672;10.250;2023-07-20T11:14:07;100790.91;;;17.22;100.00
1736;BME280;865;53.672;10.250;2023-07-20T11:16:43;100786.41;;;17.43;100.00
1736;BME280;865;53.672;10.250;2023-07-20T11:19:20;100806.75;;;17.77;100.00
1736;BME280;865;53.672;10.250;2023-07-20T11:21:51;100799.91;;;17.73;100.00
1736;BME280;865;53.672;10.250;2023-07-20T11:24:29;100810.41;;;17.56;100.00
1736;BME280;865;53.672;10.250;2023-07-20T11:26:56;100809.28;;;18.15;100.00
1736;BME280;865;53.672;10.250;2023-07-20T11:29:23;100814.25;;;18.21;100.00
1736;BME280;865;53.672;10.250;2023-07-20T11:31:58;100807.03;;;18.60;100.00
1736;BME280;865;53.672;10.250;2023-07-20T11:34:25;100807.63;;;18.82;100.00
1736;BME280;865;53.672;10.250;2023-07-20T11:36:53;100816.66;;;18.61;100.00
1736;BME280;865;53.672;10.250;2023-07-20T11:39:23;100800.59;;;18.99;100.00
1736;BME280;865;53.672;10.250;2023-07-20T11:41:55;100813.69;;;19.49;100.00
1736;BME280;865;53.672;10.250;2023-07-20T11:44:24;100841.03;;;19.17;100.00
1736;BME280;865;53.672;10.250;2023-07-20T11:47:04;100846.34;;;18.31;100.00
1736;BME280;865;53.672;10.250;2023-07-20T11:49:35;100849.97;;;17.37;100.00
1736;BME280;865;53.672;10.250;2023-07-20T11:52:04;100839.66;;;16.93;100.00
1736;BME280;865;53.672;10.250;2023-07-20T11:54:32;100851.25;;;16.89;100.00
1736;BME280;865;53.672;10.250;2023-07-20T11:57:03;100846.38;;;16.39;100.00
1736;BME280;865;53.672;10.250;2023-07-20T11:59:32;100842.81;;;15.98;100.00
1736;BME280;865;53.672;10.250;2023-07-20T12:02:01;100832.72;;;15.41;100.00
1736;BME280;865;53.672;10.250;2023-07-20T12:04:31;100829.91;;;15.46;100.00
1736;BME280;865;53.672;10.250;2023-07-20T12:06:58;100835.53;;;15.82;100.00
1736;BME280;865;53.672;10.250;2023-07-20T12:09:25;100830.97;;;15.64;100.00
1736;BME280;865;53.672;10.250;2023-07-20T12:12:10;100836.25;;;15.17;100.00
1736;BME280;865;53.672;10.250;2023-07-20T12:14:38;100834.06;;;15.30;100.00
1736;BME280;865;53.672;10.250;2023-07-20T12:17:08;100831.69;;;15.22;100.00
1736;BME280;865;53.672;10.250;2023-07-20T12:19:38;100827.28;;;15.22;100.00
1736;BME280;865;53.672;10.250;2023-07-20T12:22:06;100825.19;;;15.56;100.00
1736;BME280;865;53.672;10.250;2023-07-20T12:24:33;100826.19;;;15.75;100.00
1736;BME280;865;53.672;10.250;2023-07-20T12:27:00;100827.97;;;15.75;100.00
1736;BME280;865;53.672;10.250;2023-07-20T12:29:26;100829.97;;;15.68;100.00
1736;BME280;865;53.672;10.250;2023-07-20T12:31:52;100821.16;;;15.69;100.00
1736;BME280;865;53.672;10.250;2023-07-20T12:34:19;100820.91;;;15.75;100.00
1736;BME280;865;53.672;10.250;2023-07-20T12:36:45;100823.22;;;16.05;100.00
1736;BME280;865;53.672;10.250;2023-07-20T12:39:12;100817.91;;;16.27;100.00
1736;BME280;865;53.672;10.250;2023-07-20T12:41:38;100813.91;;;16.59;100.00
1736;BME280;865;53.672;10.250;2023-07-20T12:44:05;100805.97;;;16.81;100.00
1736;BME280;865;53.672;10.250;2023-07-20T12:46:31;100808.22;;;16.68;100.00
1736;BME280;865;53.672;10.250;2023-07-20T12:49:01;100804.31;;;16.78;100.00
1736;BME280;865;53.672;10.250;2023-07-20T12:51:28;100807.06;;;16.96;100.00
1736;BME280;865;53.672;10.250;2023-07-20T12:53:54;100808.13;;;17.48;100.00
1736;BME280;865;53.672;10.250;2023-07-20T12:56:21;100807.72;;;17.75;100.00
1736;BME280;865;53.672;10.250;2023-07-20T12:58:50;100808.56;;;17.94;100.00
1736;BME280;865;53.672;10.250;2023-07-20T13:01:17;100804.94;;;17.97;100.00
1736;BME280;865;53.672;10.250;2023-07-20T13:03:43;100809.97;;;17.65;100.00
1736;BME280;865;53.672;10.250;2023-07-20T13:06:13;100815.19;;;17.29;100.00
1736;BME280;865;53.672;10.250;2023-07-20T13:08:42;100823.88;;;17.50;100.00
1736;BME280;865;53.672;10.250;2023-07-20T13:11:09;100811.47;;;17.52;100.00
1736;BME280;865;53.672;10.250;2023-07-20T13:13:35;100819.63;;;17.28;100.00
1736;BME280;865;53.672;10.250;2023-07-20T13:16:02;100829.66;;;17.20;100.00
1736;BME280;865;53.672;10.250;2023-07-20T13:18:29;100840.00;;;17.44;100.00